createdAt,value
2022-07-25T00:04:49.167Z,8.4
2022-07-25T00:10:54.950Z,8.5
2022-07-25T00:17:05.005Z,8.6
2022-07-25T00:23:47.796Z,8.9
2022-07-25T00:30:18.129Z,8.7
2022-07-25T00:36:30.798Z,8.7
2022-07-25T00:48:42.568Z,8.8
2022-07-25T00:54:34.795Z,9
2022-07-25T01:00:39.591Z,9.6
2022-07-25T01:06:36.421Z,8.7
2022-07-25T01:12:37.609Z,9
2022-07-25T01:18:41.808Z,9.1
2022-07-25T01:31:05.926Z,9.4
2022-07-25T01:37:05.851Z,8.7
2022-07-25T01:43:11.898Z,9
2022-07-25T01:49:17.041Z,9
2022-07-25T01:55:10.675Z,9.4
2022-07-25T02:14:18.208Z,9.6
2022-07-25T02:20:43.930Z,9
2022-07-25T02:26:53.629Z,9
2022-07-25T02:32:55.100Z,9.1
2022-07-25T02:38:53.882Z,8.7
2022-07-25T02:51:04.699Z,8.6
2022-07-25T02:57:01.809Z,8.5
2022-07-25T03:03:08.115Z,8.5
2022-07-25T03:09:13.833Z,9
2022-07-25T03:15:25.450Z,9.3
2022-07-25T03:21:32.169Z,8.9
2022-07-25T03:28:03.383Z,8.9
2022-07-25T03:34:33.072Z,9
2022-07-25T03:46:59.315Z,8.9
2022-07-25T03:52:49.277Z,8.9
2022-07-25T03:58:59.204Z,9
2022-07-25T04:17:24.431Z,10
2022-07-25T04:23:55.405Z,9.4
2022-07-25T04:35:50.740Z,8.9
2022-07-25T04:41:43.171Z,9.2
2022-07-25T04:47:34.483Z,8.9
2022-07-25T04:53:26.553Z,8.7
2022-07-25T04:59:17.800Z,8.3
2022-07-25T05:05:22.510Z,8
2022-07-25T05:11:12.509Z,8.3
2022-07-25T05:17:05.886Z,8.3
2022-07-25T05:22:58.022Z,7.7
2022-07-25T05:28:49.336Z,8.1
2022-07-25T05:34:40.339Z,8
2022-07-25T05:40:32.300Z,8.1
2022-07-25T05:46:27.225Z,7.6
2022-07-25T05:52:20.328Z,8.2
2022-07-25T05:58:14.398Z,7.9
2022-07-25T06:04:09.464Z,8.1
2022-07-25T06:10:02.544Z,7.5
2022-07-25T06:15:54.239Z,8.3
2022-07-25T06:21:50.243Z,8
2022-07-25T06:27:42.613Z,7.1
2022-07-25T06:33:32.862Z,6.9
2022-07-25T06:39:23.401Z,6.9
2022-07-25T06:45:12.174Z,7.2
2022-07-25T06:51:03.560Z,7.4
2022-07-25T06:56:56.530Z,7
2022-07-25T07:02:48.313Z,7.8
2022-07-25T07:08:39.833Z,7.4
2022-07-25T07:14:30.668Z,7.5
2022-07-25T07:20:21.977Z,8
2022-07-25T07:26:14.640Z,7.5
2022-07-25T07:32:05.378Z,7.6
2022-07-25T07:37:56.497Z,7.7
2022-07-25T07:43:47.706Z,7.6
2022-07-25T07:49:50.284Z,8.4
2022-07-25T07:55:41.163Z,7.7
2022-07-25T08:01:32.753Z,7.8
2022-07-25T08:07:25.226Z,8.2
2022-07-25T08:13:16.115Z,7.8
2022-07-25T08:19:10.351Z,8.1
2022-07-25T08:25:03.058Z,8
2022-07-25T08:30:54.708Z,8
2022-07-25T08:36:44.997Z,8.8
2022-07-25T08:42:37.083Z,8
2022-07-25T08:48:29.879Z,8.7
2022-07-25T08:54:25.811Z,8.6
2022-07-25T09:00:16.956Z,8.5
2022-07-25T09:06:10.601Z,8.7
2022-07-25T09:12:01.476Z,8.4
2022-07-25T09:17:57.094Z,8.3
2022-07-25T09:23:47.917Z,8.3
2022-07-25T09:29:38.891Z,8.9
2022-07-25T09:35:30.241Z,7.9
2022-07-25T09:41:22.304Z,7.6
2022-07-25T09:47:13.771Z,7.6
2022-07-25T09:53:04.338Z,7.4
2022-07-25T09:58:55.969Z,7.6
2022-07-25T10:04:48.421Z,7.7
2022-07-25T10:10:41.886Z,7.6
2022-07-25T10:16:34.413Z,7.6
2022-07-25T10:23:02.783Z,7.7
2022-07-25T10:28:51.736Z,7.8
2022-07-25T10:34:42.338Z,8.4
2022-07-25T10:40:34.103Z,7.7
2022-07-25T10:46:27.370Z,7.9
2022-07-25T10:52:20.254Z,8.9
2022-07-25T10:58:23.502Z,9.5
2022-07-25T11:04:13.424Z,9
2022-07-25T11:10:03.835Z,9.4
2022-07-25T11:15:56.539Z,9
2022-07-25T11:21:47.688Z,9.1
2022-07-25T11:27:40.217Z,9.6
2022-07-25T11:33:30.758Z,8.3
2022-07-25T11:39:24.850Z,8.1
2022-07-25T11:45:14.282Z,8.1
2022-07-25T11:51:03.138Z,8.1
2022-07-25T11:56:54.678Z,9
2022-07-25T12:02:46.128Z,9.1
2022-07-25T12:08:38.087Z,9.1
2022-07-25T12:14:36.592Z,8.9
2022-07-25T12:20:27.648Z,9
2022-07-25T12:26:19.139Z,8.5
2022-07-25T12:32:12.154Z,8.9
2022-07-25T12:38:03.392Z,9.4
2022-07-25T12:43:54.150Z,8.9
2022-07-25T12:49:47.109Z,8.8
2022-07-25T12:55:38.308Z,9.3
2022-07-25T13:01:28.459Z,9.1
2022-07-25T13:07:19.556Z,8.8
2022-07-25T13:13:11.172Z,7.5
2022-07-25T13:19:03.430Z,7.2
2022-07-25T13:24:55.071Z,6.4
2022-07-25T13:30:46.747Z,7.4
2022-07-25T13:36:38.638Z,6.8
2022-07-25T13:42:29.894Z,6.2
2022-07-25T13:48:37.993Z,6.4
2022-07-25T13:54:27.873Z,6.3
2022-07-25T14:00:20.551Z,6
2022-07-25T14:06:12.771Z,6
2022-07-25T14:12:03.373Z,5.6
2022-07-25T14:17:55.919Z,5.2
2022-07-25T14:23:47.076Z,4.7
2022-07-25T14:29:37.876Z,4.4
2022-07-25T14:35:35.840Z,4.2
2022-07-25T14:41:25.863Z,3.9
2022-07-25T14:47:19.134Z,3.3
2022-07-25T14:53:10.524Z,3.1
2022-07-25T14:59:01.841Z,3.1
2022-07-25T15:04:53.236Z,3.1
2022-07-25T15:10:44.289Z,3
2022-07-25T15:16:35.726Z,3.3
2022-07-25T15:22:26.522Z,2.9
2022-07-25T15:28:15.697Z,3.1
2022-07-25T15:34:06.926Z,2.8
2022-07-25T15:39:57.644Z,2.8
2022-07-25T15:45:48.150Z,2.7
2022-07-25T15:51:38.279Z,3.2
2022-07-25T15:58:39.739Z,2.9
2022-07-25T16:04:30.097Z,3.2
2022-07-25T16:10:20.886Z,3.3
2022-07-25T16:16:12.220Z,3.2
2022-07-25T16:22:02.983Z,3.2
2022-07-25T16:27:56.232Z,2.9
2022-07-25T16:33:47.320Z,3.3
2022-07-25T16:39:38.676Z,3
2022-07-25T16:45:29.225Z,2.5
2022-07-25T16:51:19.712Z,2.5
2022-07-25T16:57:10.986Z,2.8
2022-07-25T17:03:01.816Z,2.8
2022-07-25T17:08:52.524Z,2.5
2022-07-25T17:14:43.899Z,2.5
2022-07-25T17:20:34.986Z,2.7
2022-07-25T17:26:25.362Z,2.5
2022-07-25T17:32:15.313Z,2.4
2022-07-25T17:38:09.295Z,2.5
2022-07-25T17:44:01.373Z,2.5
2022-07-25T17:49:51.527Z,2.6
2022-07-25T17:55:48.198Z,2.6
2022-07-25T18:01:38.928Z,2.8
2022-07-25T18:07:29.090Z,2.9
2022-07-25T18:13:19.154Z,2.5
2022-07-25T18:19:12.589Z,2.9
2022-07-25T18:25:05.313Z,2.4
2022-07-25T18:30:55.776Z,3
2022-07-25T18:36:44.971Z,3
2022-07-25T18:42:36.389Z,2.8
2022-07-25T18:48:34.016Z,3.1
2022-07-25T18:54:24.272Z,2.8
2022-07-25T19:00:14.239Z,3
2022-07-25T19:06:10.341Z,2.9
2022-07-25T19:11:59.912Z,3.1
2022-07-25T19:17:50.315Z,3
2022-07-25T19:23:40.930Z,3.1
2022-07-25T19:29:32.687Z,3.1
2022-07-25T19:35:30.144Z,3.3
2022-07-25T19:41:19.191Z,3.1
2022-07-25T19:47:15.052Z,2.7
2022-07-25T19:53:06.578Z,3.1
2022-07-25T19:58:57.308Z,2.9
2022-07-25T20:04:48.234Z,2.6
2022-07-25T20:10:38.980Z,2.6
2022-07-25T20:16:29.190Z,2.3
2022-07-25T20:22:19.608Z,2.4
2022-07-25T20:28:10.155Z,2.4
2022-07-25T20:34:01.328Z,2
2022-07-25T20:39:55.679Z,2
2022-07-25T20:45:45.716Z,2.3
2022-07-25T20:51:39.163Z,2
2022-07-25T20:57:30.055Z,1.9
2022-07-25T21:03:20.576Z,2
2022-07-25T21:09:12.805Z,1.9
2022-07-25T21:15:02.504Z,2
2022-07-25T21:20:54.512Z,1.9
2022-07-25T21:26:45.030Z,1.8
2022-07-25T21:32:35.611Z,1.9
2022-07-25T21:38:38.192Z,1.8
2022-07-25T21:44:29.614Z,2.1
2022-07-25T21:50:29.482Z,2
2022-07-25T21:56:19.632Z,1.9
2022-07-25T22:02:12.140Z,1.9
2022-07-25T22:08:02.910Z,1.4
2022-07-25T22:13:53.651Z,1.4
2022-07-25T22:19:44.755Z,1.7
2022-07-25T22:25:35.816Z,1.5
2022-07-25T22:31:28.509Z,1.5
2022-07-25T22:37:19.713Z,1.5
2022-07-25T22:43:10.018Z,1.9
2022-07-25T22:49:01.659Z,1.9
2022-07-25T22:54:51.995Z,2.3
2022-07-25T23:00:42.785Z,1.6
2022-07-25T23:06:35.503Z,2.1
2022-07-25T23:12:26.147Z,1.6
2022-07-25T23:24:24.416Z,1.9
2022-07-25T23:30:17.591Z,1.6
2022-07-25T23:36:12.811Z,2.1
2022-07-25T23:42:12.120Z,2.1
2022-07-25T23:48:02.554Z,1.7
2022-07-25T23:53:55.294Z,1.7
2022-07-25T23:59:46.617Z,1.8
